sensor_id;sensor_type;location;lat;lon;timestamp;temperature;humidity
20829;DHT22;10575;50.124;8.582;2023-04-03T00:02:24;5.80;99.90
20829;DHT22;10575;50.124;8.582;2023-04-03T00:04:49;5.70;99.90
20829;DHT22;10575;50.124;8.582;2023-04-03T00:07:15;5.70;99.90
20829;DHT22;10575;50.124;8.582;2023-04-03T00:09:40;5.70;99.90
20829;DHT22;10575;50.124;8.582;2023-04-03T00:12:06;5.70;99.90
20829;DHT22;10575;50.124;8.582;2023-04-03T00:14:32;5.80;99.90
20829;DHT22;10575;50.124;8.582;2023-04-03T00:16:57;5.90;99.90
20829;DHT22;10575;50.124;8.582;2023-04-03T00:19:23;5.90;99.90
20829;DHT22;10575;50.124;8.582;2023-04-03T00:21:48;6.00;99.90
20829;DHT22;10575;50.124;8.582;2023-04-03T00:24:14;6.20;99.90
20829;DHT22;10575;50.124;8.582;2023-04-03T00:26:39;6.20;99.90
20829;DHT22;10575;50.124;8.582;2023-04-03T00:29:05;6.30;99.90
20829;DHT22;10575;50.124;8.582;2023-04-03T00:31:30;6.20;99.90
20829;DHT22;10575;50.124;8.582;2023-04-03T00:33:56;6.20;99.90
20829;DHT22;10575;50.124;8.582;2023-04-03T00:36:21;6.10;99.90
20829;DHT22;10575;50.124;8.582;2023-04-03T00:38:47;6.20;99.90
20829;DHT22;10575;50.124;8.582;2023-04-03T00:41:12;6.20;99.90
20829;DHT22;10575;50.124;8.582;2023-04-03T00:43:38;6.20;99.90
20829;DHT22;10575;50.124;8.582;2023-04-03T00:46:04;6.20;99.90
20829;DHT22;10575;50.124;8.582;2023-04-03T00:48:41;6.20;99.90
20829;DHT22;10575;50.124;8.582;2023-04-03T00:51:12;6.20;99.90
20829;DHT22;10575;50.124;8.582;2023-04-03T00:53:44;6.20;99.90
20829;DHT22;10575;50.124;8.582;2023-04-03T00:56:13;6.30;99.90
20829;DHT22;10575;50.124;8.582;2023-04-03T00:59:04;6.50;99.90
20829;DHT22;10575;50.124;8.582;2023-04-03T01:01:29;6.40;99.90
20829;DHT22;10575;50.124;8.582;2023-04-03T01:03:56;6.20;99.90
20829;DHT22;10575;50.124;8.582;2023-04-03T01:06:29;6.10;99.90
20829;DHT22;10575;50.124;8.582;2023-04-03T01:08:57;6.20;99.90
20829;DHT22;10575;50.124;8.582;2023-04-03T01:11:23;6.00;99.90
20829;DHT22;10575;50.124;8.582;2023-04-03T01:13:49;6.00;99.90
20829;DHT22;10575;50.124;8.582;2023-04-03T01:16:14;6.00;99.90
20829;DHT22;10575;50.124;8.582;2023-04-03T01:18:41;5.90;99.90
20829;DHT22;10575;50.124;8.582;2023-04-03T01:23:57;5.90;99.90
20829;DHT22;10575;50.124;8.582;2023-04-03T01:26:25;5.90;99.90
20829;DHT22;10575;50.124;8.582;2023-04-03T01:28:54;6.00;99.90
20829;DHT22;10575;50.124;8.582;2023-04-03T01:31:30;5.90;99.90
20829;DHT22;10575;50.124;8.582;2023-04-03T01:33:57;5.90;99.90
20829;DHT22;10575;50.124;8.582;2023-04-03T01:36:25;5.80;99.90
20829;DHT22;10575;50.124;8.582;2023-04-03T01:38:52;5.80;99.90
20829;DHT22;10575;50.124;8.582;2023-04-03T01:41:18;5.80;99.90
20829;DHT22;10575;50.124;8.582;2023-04-03T01:43:46;5.80;99.90
20829;DHT22;10575;50.124;8.582;2023-04-03T01:46:12;5.80;99.90
20829;DHT22;10575;50.124;8.582;2023-04-03T01:48:37;5.90;99.90
20829;DHT22;10575;50.124;8.582;2023-04-03T01:51:03;5.80;99.90
20829;DHT22;10575;50.124;8.582;2023-04-03T01:53:28;5.80;99.90
20829;DHT22;10575;50.124;8.582;2023-04-03T01:55:54;5.80;99.90
20829;DHT22;10575;50.124;8.582;2023-04-03T01:58:20;5.80;99.90
20829;DHT22;10575;50.124;8.582;2023-04-03T02:00:45;5.80;99.90
20829;DHT22;10575;50.124;8.582;2023-04-03T02:03:11;5.90;99.90
20829;DHT22;10575;50.124;8.582;2023-04-03T02:05:37;5.90;99.90
20829;DHT22;10575;50.124;8.582;2023-04-03T02:08:03;5.80;99.90
20829;DHT22;10575;50.124;8.582;2023-04-03T02:10:28;5.80;99.90
20829;DHT22;10575;50.124;8.582;2023-04-03T02:12:54;5.80;99.90
20829;DHT22;10575;50.124;8.582;2023-04-03T02:15:19;5.70;99.90
20829;DHT22;10575;50.124;8.582;2023-04-03T02:17:45;5.70;99.90
20829;DHT22;10575;50.124;8.582;2023-04-03T02:20:11;5.70;99.90
20829;DHT22;10575;50.124;8.582;2023-04-03T02:22:37;5.70;99.90
20829;DHT22;10575;50.124;8.582;2023-04-03T02:25:03;5.60;99.90
20829;DHT22;10575;50.124;8.582;2023-04-03T02:27:28;5.60;99.90
20829;DHT22;10575;50.124;8.582;2023-04-03T02:29:54;5.70;99.90
20829;DHT22;10575;50.124;8.582;2023-04-03T02:32:19;5.70;99.90
20829;DHT22;10575;50.124;8.582;2023-04-03T02:34:45;5.70;99.90
20829;DHT22;10575;50.124;8.582;2023-04-03T02:37:10;5.70;99.90
20829;DHT22;10575;50.124;8.582;2023-04-03T02:39:36;5.70;99.90
20829;DHT22;10575;50.124;8.582;2023-04-03T02:42:01;5.70;99.90
20829;DHT22;10575;50.124;8.582;2023-04-03T02:44:27;5.70;99.90
20829;DHT22;10575;50.124;8.582;2023-04-03T02:46:52;5.60;99.90
20829;DHT22;10575;50.124;8.582;2023-04-03T02:49:18;5.70;99.90
20829;DHT22;10575;50.124;8.582;2023-04-03T02:51:44;5.70;99.90
20829;DHT22;10575;50.124;8.582;2023-04-03T02:54:09;5.60;99.90
20829;DHT22;10575;50.124;8.582;2023-04-03T02:56:35;5.60;99.90
20829;DHT22;10575;50.124;8.582;2023-04-03T02:59:00;5.60;99.90
20829;DHT22;10575;50.124;8.582;2023-04-03T03:01:26;5.60;99.90
20829;DHT22;10575;50.124;8.582;2023-04-03T03:03:53;5.60;99.90
20829;DHT22;10575;50.124;8.582;2023-04-03T03:06:19;5.60;99.90
20829;DHT22;10575;50.124;8.582;2023-04-03T03:08:45;5.50;99.90
20829;DHT22;10575;50.124;8.582;2023-04-03T03:11:11;5.60;99.90
20829;DHT22;10575;50.124;8.582;2023-04-03T03:13:36;5.50;99.90
20829;DHT22;10575;50.124;8.582;2023-04-03T03:16:02;5.50;99.90
20829;DHT22;10575;50.124;8.582;2023-04-03T03:18:28;5.40;99.90
20829;DHT22;10575;50.124;8.582;2023-04-03T03:20:58;5.40;99.90
20829;DHT22;10575;50.124;8.582;2023-04-03T03:23:25;5.40;99.90
20829;DHT22;10575;50.124;8.582;2023-04-03T03:26:00;5.30;99.90
20829;DHT22;10575;50.124;8.582;2023-04-03T03:28:26;5.30;99.90
20829;DHT22;10575;50.124;8.582;2023-04-03T03:30:52;5.30;99.90
20829;DHT22;10575;50.124;8.582;2023-04-03T03:33:18;5.20;99.90
20829;DHT22;10575;50.124;8.582;2023-04-03T03:35:44;5.20;99.90
20829;DHT22;10575;50.124;8.582;2023-04-03T03:38:09;5.10;99.90
20829;DHT22;10575;50.124;8.582;2023-04-03T03:40:35;5.10;99.90
20829;DHT22;10575;50.124;8.582;2023-04-03T03:43:00;5.10;99.90
20829;DHT22;10575;50.124;8.582;2023-04-03T03:45:26;5.10;99.90
20829;DHT22;10575;50.124;8.582;2023-04-03T03:47:52;5.00;99.90
20829;DHT22;10575;50.124;8.582;2023-04-03T03:50:17;5.00;99.90
20829;DHT22;10575;50.124;8.582;2023-04-03T03:52:43;4.90;99.90
20829;DHT22;10575;50.124;8.582;2023-04-03T03:55:08;4.80;99.90
20829;DHT22;10575;50.124;8.582;2023-04-03T03:57:34;4.80;99.90
20829;DHT22;10575;50.124;8.582;2023-04-03T04:00:00;4.70;99.90
20829;DHT22;10575;50.124;8.582;2023-04-03T04:02:26;4.70;99.90
20829;DHT22;10575;50.124;8.582;2023-04-03T04:04:51;4.60;99.90
20829;DHT22;10575;50.124;8.582;2023-04-03T04:07:17;4.60;99.90
20829;DHT22;10575;50.124;8.582;2023-04-03T04:09:42;4.60;99.90
20829;DHT22;10575;50.124;8.582;2023-04-03T04:12:08;4.60;99.90
20829;DHT22;10575;50.124;8.582;2023-04-03T04:14:33;4.60;99.90
20829;DHT22;10575;50.124;8.582;2023-04-03T04:16:59;4.60;99.90
20829;DHT22;10575;50.124;8.582;2023-04-03T04:19:24;4.50;99.90
20829;DHT22;10575;50.124;8.582;2023-04-03T04:21:50;4.50;99.90
20829;DHT22;10575;50.124;8.582;2023-04-03T04:24:15;4.40;99.90
20829;DHT22;10575;50.124;8.582;2023-04-03T04:26:41;4.40;99.90
20829;DHT22;10575;50.124;8.582;2023-04-03T04:29:08;4.30;99.90
20829;DHT22;10575;50.124;8.582;2023-04-03T04:31:33;4.20;99.90
20829;DHT22;10575;50.124;8.582;2023-04-03T04:33:59;4.20;99.90
20829;DHT22;10575;50.124;8.582;2023-04-03T04:36:24;4.20;99.90
20829;DHT22;10575;50.124;8.582;2023-04-03T04:38:50;4.10;99.90
20829;DHT22;10575;50.124;8.582;2023-04-03T04:41:20;4.10;99.90
20829;DHT22;10575;50.124;8.582;2023-04-03T04:43:48;4.00;99.90
20829;DHT22;10575;50.124;8.582;2023-04-03T04:46:13;4.00;99.90
20829;DHT22;10575;50.124;8.582;2023-04-03T04:48:39;4.00;99.90
20829;DHT22;10575;50.124;8.582;2023-04-03T04:51:06;4.00;99.90
20829;DHT22;10575;50.124;8.582;2023-04-03T04:53:31;3.90;99.90
20829;DHT22;10575;50.124;8.582;2023-04-03T04:55:57;3.90;99.90
20829;DHT22;10575;50.124;8.582;2023-04-03T04:58:22;4.00;99.90
20829;DHT22;10575;50.124;8.582;2023-04-03T05:00:48;4.00;99.90
20829;DHT22;10575;50.124;8.582;2023-04-03T05:03:14;3.90;99.90
20829;DHT22;10575;50.124;8.582;2023-04-03T05:05:40;3.90;99.90
20829;DHT22;10575;50.124;8.582;2023-04-03T05:08:06;3.90;99.90
20829;DHT22;10575;50.124;8.582;2023-04-03T05:10:31;3.90;99.90
20829;DHT22;10575;50.124;8.582;2023-04-03T05:12:57;3.90;99.90
20829;DHT22;10575;50.124;8.582;2023-04-03T05:15:23;3.90;99.90
20829;DHT22;10575;50.124;8.582;2023-04-03T05:17:49;3.90;99.90
20829;DHT22;10575;50.124;8.582;2023-04-03T05:20:15;3.90;99.90
20829;DHT22;10575;50.124;8.582;2023-04-03T05:22:41;4.00;99.90
20829;DHT22;10575;50.124;8.582;2023-04-03T05:25:07;4.00;99.90
20829;DHT22;10575;50.124;8.582;2023-04-03T05:27:32;3.90;99.90
20829;DHT22;10575;50.124;8.582;2023-04-03T05:29:58;4.00;99.90
20829;DHT22;10575;50.124;8.582;2023-04-03T05:32:25;4.00;99.90
20829;DHT22;10575;50.124;8.582;2023-04-03T05:34:52;3.90;99.90
20829;DHT22;10575;50.124;8.582;2023-04-03T05:37:18;3.90;99.90
20829;DHT22;10575;50.124;8.582;2023-04-03T05:39:44;4.00;99.90
20829;DHT22;10575;50.124;8.582;2023-04-03T05:42:09;4.00;99.90
20829;DHT22;10575;50.124;8.582;2023-04-03T05:44:37;4.10;99.90
20829;DHT22;10575;50.124;8.582;2023-04-03T05:47:02;4.10;99.90
20829;DHT22;10575;50.124;8.582;2023-04-03T05:49:28;4.10;99.90
20829;DHT22;10575;50.124;8.582;2023-04-03T05:51:53;4.10;99.90
20829;DHT22;10575;50.124;8.582;2023-04-03T05:54:23;4.20;99.90
20829;DHT22;10575;50.124;8.582;2023-04-03T05:56:50;4.50;99.90
20829;DHT22;10575;50.124;8.582;2023-04-03T05:59:16;5.10;99.90
20829;DHT22;10575;50.124;8.582;2023-04-03T06:01:42;5.50;99.90
20829;DHT22;10575;50.124;8.582;2023-04-03T06:04:07;5.60;99.90
20829;DHT22;10575;50.124;8.582;2023-04-03T06:09:10;5.70;99.90
20829;DHT22;10575;50.124;8.582;2023-04-03T06:11:36;5.60;99.90
20829;DHT22;10575;50.124;8.582;2023-04-03T06:14:02;5.50;99.90
20829;DHT22;10575;50.124;8.582;2023-04-03T06:16:28;5.40;99.90
20829;DHT22;10575;50.124;8.582;2023-04-03T06:18:54;5.50;99.90
20829;DHT22;10575;50.124;8.582;2023-04-03T06:21:20;5.60;99.90
20829;DHT22;10575;50.124;8.582;2023-04-03T06:23:46;6.20;99.90
20829;DHT22;10575;50.124;8.582;2023-04-03T06:26:11;6.10;99.90
20829;DHT22;10575;50.124;8.582;2023-04-03T06:28:37;5.70;99.90
20829;DHT22;10575;50.124;8.582;2023-04-03T06:31:02;5.60;99.90
20829;DHT22;10575;50.124;8.582;2023-04-03T06:33:28;6.50;99.90
20829;DHT22;10575;50.124;8.582;2023-04-03T06:35:58;7.70;99.90
20829;DHT22;10575;50.124;8.582;2023-04-03T06:38:23;8.50;99.90
20829;DHT22;10575;50.124;8.582;2023-04-03T06:40:49;8.90;99.90
20829;DHT22;10575;50.124;8.582;2023-04-03T06:43:14;8.60;99.90
20829;DHT22;10575;50.124;8.582;2023-04-03T06:45:40;8.10;99.90
20829;DHT22;10575;50.124;8.582;2023-04-03T06:48:06;7.60;99.90
20829;DHT22;10575;50.124;8.582;2023-04-03T06:50:31;7.70;99.90
20829;DHT22;10575;50.124;8.582;2023-04-03T06:52:57;7.80;99.90
20829;DHT22;10575;50.124;8.582;2023-04-03T06:55:22;8.60;99.90
20829;DHT22;10575;50.124;8.582;2023-04-03T06:57:48;9.40;99.90
20829;DHT22;10575;50.124;8.582;2023-04-03T07:00:14;10.40;99.90
20829;DHT22;10575;50.124;8.582;2023-04-03T07:02:40;11.70;99.90
20829;DHT22;10575;50.124;8.582;2023-04-03T07:05:06;12.00;99.90
20829;DHT22;10575;50.124;8.582;2023-04-03T07:07:32;11.90;99.90
20829;DHT22;10575;50.124;8.582;2023-04-03T07:09:59;11.10;99.90
20829;DHT22;10575;50.124;8.582;2023-04-03T07:12:25;10.30;99.90
20829;DHT22;10575;50.124;8.582;2023-04-03T07:14:50;10.00;99.90
20829;DHT22;10575;50.124;8.582;2023-04-03T07:17:16;9.30;99.90
20829;DHT22;10575;50.124;8.582;2023-04-03T07:19:41;8.70;99.90
20829;DHT22;10575;50.124;8.582;2023-04-03T07:22:07;8.70;99.90
20829;DHT22;10575;50.124;8.582;2023-04-03T07:24:33;9.20;99.90
20829;DHT22;10575;50.124;8.582;2023-04-03T07:26:58;10.10;99.90
20829;DHT22;10575;50.124;8.582;2023-04-03T07:29:24;12.00;99.90
20829;DHT22;10575;50.124;8.582;2023-04-03T07:31:49;13.70;99.90
20829;DHT22;10575;50.124;8.582;2023-04-03T07:34:15;13.80;99.90
20829;DHT22;10575;50.124;8.582;2023-04-03T07:36:41;13.30;99.90
20829;DHT22;10575;50.124;8.582;2023-04-03T07:39:06;11.60;99.90
20829;DHT22;10575;50.124;8.582;2023-04-03T07:41:33;10.70;99.90
20829;DHT22;10575;50.124;8.582;2023-04-03T07:43:58;10.50;99.90
20829;DHT22;10575;50.124;8.582;2023-04-03T07:46:24;10.90;99.90
20829;DHT22;10575;50.124;8.582;2023-04-03T07:48:50;10.80;99.90
20829;DHT22;10575;50.124;8.582;2023-04-03T07:51:15;10.90;99.90
20829;DHT22;10575;50.124;8.582;2023-04-03T07:53:41;10.90;99.90
20829;DHT22;10575;50.124;8.582;2023-04-03T07:56:07;10.80;99.90
20829;DHT22;10575;50.124;8.582;2023-04-03T07:58:33;11.10;99.90
20829;DHT22;10575;50.124;8.582;2023-04-03T08:00:59;11.90;99.90
20829;DHT22;10575;50.124;8.582;2023-04-03T08:03:25;12.40;99.90
20829;DHT22;10575;50.124;8.582;2023-04-03T08:05:50;13.70;99.90
20829;DHT22;10575;50.124;8.582;2023-04-03T08:08:19;16.10;99.90
20829;DHT22;10575;50.124;8.582;2023-04-03T08:10:49;17.80;95.70
20829;DHT22;10575;50.124;8.582;2023-04-03T08:13:15;18.60;91.00
20829;DHT22;10575;50.124;8.582;2023-04-03T08:15:41;18.40;86.50
20829;DHT22;10575;50.124;8.582;2023-04-03T08:18:06;18.40;83.60
20829;DHT22;10575;50.124;8.582;2023-04-03T08:20:32;19.10;83.90
20829;DHT22;10575;50.124;8.582;2023-04-03T08:22:57;20.50;75.60
20829;DHT22;10575;50.124;8.582;2023-04-03T08:25:23;20.30;69.80
20829;DHT22;10575;50.124;8.582;2023-04-03T08:27:48;19.10;73.10
20829;DHT22;10575;50.124;8.582;2023-04-03T08:30:14;19.10;71.20
20829;DHT22;10575;50.124;8.582;2023-04-03T08:32:39;19.00;68.90
20829;DHT22;10575;50.124;8.582;2023-04-03T08:35:07;18.60;69.80
20829;DHT22;10575;50.124;8.582;2023-04-03T08:37:35;19.20;71.00
20829;DHT22;10575;50.124;8.582;2023-04-03T08:40:04;18.90;69.80
20829;DHT22;10575;50.124;8.582;2023-04-03T08:45:15;18.90;68.30
20829;DHT22;10575;50.124;8.582;2023-04-03T08:47:58;19.40;68.20
20829;DHT22;10575;50.124;8.582;2023-04-03T08:50:47;20.00;65.40
20829;DHT22;10575;50.124;8.582;2023-04-03T08:53:28;20.30;61.20
20829;DHT22;10575;50.124;8.582;2023-04-03T08:55:56;17.00;66.50
20829;DHT22;10575;50.124;8.582;2023-04-03T08:58:47;16.10;69.10
20829;DHT22;10575;50.124;8.582;2023-04-03T09:01:25;15.50;71.40
20829;DHT22;10575;50.124;8.582;2023-04-03T09:03:52;14.10;73.10
20829;DHT22;10575;50.124;8.582;2023-04-03T09:06:26;12.90;77.70
20829;DHT22;10575;50.124;8.582;2023-04-03T09:09:24;15.20;77.60
20829;DHT22;10575;50.124;8.582;2023-04-03T09:12:23;15.80;71.10
20829;DHT22;10575;50.124;8.582;2023-04-03T09:15:15;15.30;74.10
20829;DHT22;10575;50.124;8.582;2023-04-03T09:20:57;15.00;73.30
20829;DHT22;10575;50.124;8.582;2023-04-03T09:23:34;15.40;74.70
20829;DHT22;10575;50.124;8.582;2023-04-03T09:26:05;16.80;69.50
20829;DHT22;10575;50.124;8.582;2023-04-03T09:28:38;16.60;68.30
20829;DHT22;10575;50.124;8.582;2023-04-03T09:31:24;15.80;71.10
20829;DHT22;10575;50.124;8.582;2023-04-03T09:33:56;14.20;73.90
20829;DHT22;10575;50.124;8.582;2023-04-03T09:39:17;11.40;83.00
20829;DHT22;10575;50.124;8.582;2023-04-03T09:41:59;10.40;88.50
20829;DHT22;10575;50.124;8.582;2023-04-03T09:44:34;9.80;90.40
20829;DHT22;10575;50.124;8.582;2023-04-03T09:47:19;9.50;90.90
20829;DHT22;10575;50.124;8.582;2023-04-03T09:49:44;8.80;91.80
20829;DHT22;10575;50.124;8.582;2023-04-03T09:52:25;8.50;92.30
20829;DHT22;10575;50.124;8.582;2023-04-03T09:54:50;8.60;93.10
20829;DHT22;10575;50.124;8.582;2023-04-03T09:57:16;9.10;93.00
20829;DHT22;10575;50.124;8.582;2023-04-03T09:59:56;8.90;92.20
20829;DHT22;10575;50.124;8.582;2023-04-03T10:02:35;8.80;93.30
20829;DHT22;10575;50.124;8.582;2023-04-03T10:05:03;8.70;93.20
20829;DHT22;10575;50.124;8.582;2023-04-03T10:07:38;8.70;94.50
20829;DHT22;10575;50.124;8.582;2023-04-03T10:10:20;9.00;93.40
20829;DHT22;10575;50.124;8.582;2023-04-03T10:12:48;9.00;93.90
20829;DHT22;10575;50.124;8.582;2023-04-03T10:15:16;9.10;93.60
20829;DHT22;10575;50.124;8.582;2023-04-03T10:25:40;9.20;93.40
20829;DHT22;10575;50.124;8.582;2023-04-03T10:28:26;9.20;94.10
20829;DHT22;10575;50.124;8.582;2023-04-03T10:34:05;8.90;93.20
20829;DHT22;10575;50.124;8.582;2023-04-03T10:39:21;8.80;92.90
20829;DHT22;10575;50.124;8.582;2023-04-03T10:42:04;9.10;93.20
20829;DHT22;10575;50.124;8.582;2023-04-03T10:50:37;9.30;92.90
20829;DHT22;10575;50.124;8.582;2023-04-03T10:53:24;8.90;92.00
20829;DHT22;10575;50.124;8.582;2023-04-03T10:56:41;8.50;93.50
20829;DHT22;10575;50.124;8.582;2023-04-03T10:59:20;8.60;94.10
20829;DHT22;10575;50.124;8.582;2023-04-03T11:01:56;8.60;92.60
20829;DHT22;10575;50.124;8.582;2023-04-03T11:04:24;8.40;94.10
20829;DHT22;10575;50.124;8.582;2023-04-03T11:09:44;8.60;94.80
20829;DHT22;10575;50.124;8.582;2023-04-03T11:12:23;8.70;94.70
20829;DHT22;10575;50.124;8.582;2023-04-03T11:14:51;8.80;93.70
20829;DHT22;10575;50.124;8.582;2023-04-03T11:20:04;8.70;94.80
20829;DHT22;10575;50.124;8.582;2023-04-03T11:22:43;8.80;94.40
20829;DHT22;10575;50.124;8.582;2023-04-03T11:27:45;8.60;92.00
20829;DHT22;10575;50.124;8.582;2023-04-03T11:30:23;8.60;92.70
20829;DHT22;10575;50.124;8.582;2023-04-03T11:35:30;8.70;92.80
20829;DHT22;10575;50.124;8.582;2023-04-03T11:37:57;8.90;91.50
20829;DHT22;10575;50.124;8.582;2023-04-03T11:40:28;8.90;91.00
20829;DHT22;10575;50.124;8.582;2023-04-03T12:03:30;8.60;90.50
20829;DHT22;10575;50.124;8.582;2023-04-03T12:08:44;8.40;88.10
20829;DHT22;10575;50.124;8.582;2023-04-03T12:29:25;9.00;90.20
20829;DHT22;10575;50.124;8.582;2023-04-03T12:45:26;8.50;90.50
20829;DHT22;10575;50.124;8.582;2023-04-03T12:47:55;8.60;89.80
20829;DHT22;10575;50.124;8.582;2023-04-03T12:50:28;8.60;90.00
20829;DHT22;10575;50.124;8.582;2023-04-03T12:53:12;8.70;90.00
20829;DHT22;10575;50.124;8.582;2023-04-03T12:55:39;8.80;90.20
20829;DHT22;10575;50.124;8.582;2023-04-03T12:58:27;8.70;88.30
20829;DHT22;10575;50.124;8.582;2023-04-03T13:01:09;8.60;88.70
20829;DHT22;10575;50.124;8.582;2023-04-03T13:03:42;8.70;88.50
20829;DHT22;10575;50.124;8.582;2023-04-03T13:06:18;8.60;89.40
20829;DHT22;10575;50.124;8.582;2023-04-03T13:09:29;8.60;88.50
20829;DHT22;10575;50.124;8.582;2023-04-03T13:12:02;8.60;88.30
20829;DHT22;10575;50.124;8.582;2023-04-03T13:14:29;8.50;90.20
20829;DHT22;10575;50.124;8.582;2023-04-03T13:16:59;8.60;89.80
20829;DHT22;10575;50.124;8.582;2023-04-03T13:19:28;8.70;88.60
20829;DHT22;10575;50.124;8.582;2023-04-03T13:22:28;8.60;87.50
20829;DHT22;10575;50.124;8.582;2023-04-03T13:24:58;8.60;88.50
20829;DHT22;10575;50.124;8.582;2023-04-03T13:27:24;8.70;89.40
20829;DHT22;10575;50.124;8.582;2023-04-03T13:29:52;8.70;87.70
20829;DHT22;10575;50.124;8.582;2023-04-03T13:32:22;8.80;89.00
20829;DHT22;10575;50.124;8.582;2023-04-03T13:34:48;8.90;88.90
20829;DHT22;10575;50.124;8.582;2023-04-03T13:42:35;8.60;88.80
20829;DHT22;10575;50.124;8.582;2023-04-03T13:45:18;8.60;89.40
20829;DHT22;10575;50.124;8.582;2023-04-03T13:47:46;8.70;90.10
20829;DHT22;10575;50.124;8.582;2023-04-03T13:52:51;8.80;88.70
20829;DHT22;10575;50.124;8.582;2023-04-03T13:55:18;8.80;88.50
20829;DHT22;10575;50.124;8.582;2023-04-03T14:03:01;8.70;89.70
20829;DHT22;10575;50.124;8.582;2023-04-03T14:05:26;8.90;90.20
20829;DHT22;10575;50.124;8.582;2023-04-03T14:07:54;9.00;88.40
20829;DHT22;10575;50.124;8.582;2023-04-03T14:10:19;9.10;88.50
20829;DHT22;10575;50.124;8.582;2023-04-03T14:12:45;9.00;85.00
20829;DHT22;10575;50.124;8.582;2023-04-03T14:15:24;8.80;84.60
20829;DHT22;10575;50.124;8.582;2023-04-03T14:17:51;8.60;86.40
20829;DHT22;10575;50.124;8.582;2023-04-03T14:20:20;8.70;89.70
20829;DHT22;10575;50.124;8.582;2023-04-03T14:22:47;8.80;87.40
20829;DHT22;10575;50.124;8.582;2023-04-03T14:25:14;8.80;85.60
20829;DHT22;10575;50.124;8.582;2023-04-03T14:27:43;8.80;85.50
20829;DHT22;10575;50.124;8.582;2023-04-03T14:30:14;8.70;86.70
20829;DHT22;10575;50.124;8.582;2023-04-03T14:32:41;8.80;89.60
20829;DHT22;10575;50.124;8.582;2023-04-03T14:35:06;8.90;86.50
20829;DHT22;10575;50.124;8.582;2023-04-03T14:37:32;8.70;87.10
20829;DHT22;10575;50.124;8.582;2023-04-03T14:40:00;8.70;89.00
20829;DHT22;10575;50.124;8.582;2023-04-03T14:42:29;8.70;89.10
20829;DHT22;10575;50.124;8.582;2023-04-03T14:44:56;8.80;89.00
20829;DHT22;10575;50.124;8.582;2023-04-03T14:47:28;8.90;86.10
20829;DHT22;10575;50.124;8.582;2023-04-03T14:49:54;8.90;87.00
20829;DHT22;10575;50.124;8.582;2023-04-03T14:52:24;8.70;86.00
20829;DHT22;10575;50.124;8.582;2023-04-03T14:54:51;8.70;86.00
20829;DHT22;10575;50.124;8.582;2023-04-03T14:57:18;8.70;86.10
20829;DHT22;10575;50.124;8.582;2023-04-03T14:59:44;8.80;87.40
20829;DHT22;10575;50.124;8.582;2023-04-03T15:02:31;8.90;85.50
20829;DHT22;10575;50.124;8.582;2023-04-03T15:04:59;8.90;85.30
20829;DHT22;10575;50.124;8.582;2023-04-03T15:07:27;8.90;85.10
20829;DHT22;10575;50.124;8.582;2023-04-03T15:09:53;8.70;83.90
20829;DHT22;10575;50.124;8.582;2023-04-03T15:12:21;8.60;85.50
20829;DHT22;10575;50.124;8.582;2023-04-03T15:14:47;8.60;85.00
20829;DHT22;10575;50.124;8.582;2023-04-03T15:17:18;8.60;82.70
20829;DHT22;10575;50.124;8.582;2023-04-03T15:19:45;8.60;84.40
20829;DHT22;10575;50.124;8.582;2023-04-03T15:22:19;8.60;84.40
20829;DHT22;10575;50.124;8.582;2023-04-03T15:24:45;8.60;83.80
20829;DHT22;10575;50.124;8.582;2023-04-03T15:27:12;8.60;84.00
20829;DHT22;10575;50.124;8.582;2023-04-03T15:29:40;8.60;83.50
20829;DHT22;10575;50.124;8.582;2023-04-03T15:32:08;8.60;84.70
20829;DHT22;10575;50.124;8.582;2023-04-03T15:34:35;8.70;86.50
20829;DHT22;10575;50.124;8.582;2023-04-03T15:37:00;8.80;86.70
20829;DHT22;10575;50.124;8.582;2023-04-03T15:39:26;8.80;85.60
20829;DHT22;10575;50.124;8.582;2023-04-03T15:41:52;8.70;86.00
20829;DHT22;10575;50.124;8.582;2023-04-03T15:44:19;8.60;85.10
20829;DHT22;10575;50.124;8.582;2023-04-03T15:46:45;8.60;86.60
20829;DHT22;10575;50.124;8.582;2023-04-03T15:49:12;8.60;85.30
20829;DHT22;10575;50.124;8.582;2023-04-03T15:51:38;8.60;83.70
20829;DHT22;10575;50.124;8.582;2023-04-03T15:54:04;8.50;83.30
20829;DHT22;10575;50.124;8.582;2023-04-03T15:56:29;8.50;83.70
20829;DHT22;10575;50.124;8.582;2023-04-03T15:58:55;8.50;83.70
20829;DHT22;10575;50.124;8.582;2023-04-03T16:01:21;8.50;85.40
20829;DHT22;10575;50.124;8.582;2023-04-03T16:03:46;8.50;85.20
20829;DHT22;10575;50.124;8.582;2023-04-03T16:06:14;8.50;86.00
20829;DHT22;10575;50.124;8.582;2023-04-03T16:08:40;8.50;88.70
20829;DHT22;10575;50.124;8.582;2023-04-03T16:11:06;8.60;87.90
20829;DHT22;10575;50.124;8.582;2023-04-03T16:13:31;8.40;81.40
20829;DHT22;10575;50.124;8.582;2023-04-03T16:15:58;8.30;80.20
20829;DHT22;10575;50.124;8.582;2023-04-03T16:18:24;8.30;81.10
20829;DHT22;10575;50.124;8.582;2023-04-03T16:20:49;8.30;81.60
20829;DHT22;10575;50.124;8.582;2023-04-03T16:23:15;8.30;83.50
20829;DHT22;10575;50.124;8.582;2023-04-03T16:25:40;8.30;83.10
20829;DHT22;10575;50.124;8.582;2023-04-03T16:28:11;8.30;84.30
20829;DHT22;10575;50.124;8.582;2023-04-03T16:30:37;8.20;84.70
20829;DHT22;10575;50.124;8.582;2023-04-03T16:33:04;8.20;85.30
20829;DHT22;10575;50.124;8.582;2023-04-03T16:35:29;8.10;85.30
20829;DHT22;10575;50.124;8.582;2023-04-03T16:37:55;8.20;85.50
20829;DHT22;10575;50.124;8.582;2023-04-03T16:40:21;8.20;83.40
20829;DHT22;10575;50.124;8.582;2023-04-03T16:42:46;8.10;83.90
20829;DHT22;10575;50.124;8.582;2023-04-03T16:45:12;8.10;84.80
20829;DHT22;10575;50.124;8.582;2023-04-03T16:47:37;8.20;84.60
20829;DHT22;10575;50.124;8.582;2023-04-03T16:50:03;8.20;85.30
20829;DHT22;10575;50.124;8.582;2023-04-03T16:52:29;8.20;86.00
20829;DHT22;10575;50.124;8.582;2023-04-03T16:54:54;8.20;87.00
20829;DHT22;10575;50.124;8.582;2023-04-03T16:57:21;8.10;86.40
20829;DHT22;10575;50.124;8.582;2023-04-03T16:59:47;8.10;86.00
20829;DHT22;10575;50.124;8.582;2023-04-03T17:02:13;8.10;86.50
20829;DHT22;10575;50.124;8.582;2023-04-03T17:04:38;8.00;85.50
20829;DHT22;10575;50.124;8.582;2023-04-03T17:07:04;7.90;86.20
20829;DHT22;10575;50.124;8.582;2023-04-03T17:09:32;7.90;86.80
20829;DHT22;10575;50.124;8.582;2023-04-03T17:11:57;7.90;86.80
20829;DHT22;10575;50.124;8.582;2023-04-03T17:14:23;7.90;87.80
20829;DHT22;10575;50.124;8.582;2023-04-03T17:16:49;7.90;87.80
20829;DHT22;10575;50.124;8.582;2023-04-03T17:19:15;7.90;87.50
20829;DHT22;10575;50.124;8.582;2023-04-03T17:21:42;7.80;87.80
20829;DHT22;10575;50.124;8.582;2023-04-03T17:24:10;7.70;88.20
20829;DHT22;10575;50.124;8.582;2023-04-03T17:26:39;7.60;89.60
20829;DHT22;10575;50.124;8.582;2023-04-03T17:29:05;7.50;88.10
20829;DHT22;10575;50.124;8.582;2023-04-03T17:31:30;7.50;89.00
20829;DHT22;10575;50.124;8.582;2023-04-03T17:33:56;7.40;88.80
20829;DHT22;10575;50.124;8.582;2023-04-03T17:36:22;7.40;88.50
20829;DHT22;10575;50.124;8.582;2023-04-03T17:38:50;7.30;88.10
20829;DHT22;10575;50.124;8.582;2023-04-03T17:41:15;7.30;87.90
20829;DHT22;10575;50.124;8.582;2023-04-03T17:43:41;7.20;87.90
20829;DHT22;10575;50.124;8.582;2023-04-03T17:46:08;7.20;88.10